createdAt,value
2019-02-28T00:02:30.696Z,76.14
2019-02-28T00:07:34.105Z,76.79
2019-02-28T00:12:37.538Z,76.99
2019-02-28T00:17:43.596Z,76.91
2019-02-28T00:22:49.279Z,77.69
2019-02-28T00:27:52.682Z,79.31
2019-02-28T00:32:59.335Z,78.90
2019-02-28T00:38:01.586Z,79.73
2019-02-28T00:43:05.121Z,79.25
2019-02-28T00:48:08.550Z,79.63
2019-02-28T00:53:11.989Z,80.09
2019-02-28T00:58:15.416Z,80.70
2019-02-28T01:03:18.834Z,80.81
2019-02-28T01:08:22.816Z,80.90
2019-02-28T01:13:28.099Z,82.04
2019-02-28T01:18:34.472Z,81.42
2019-02-28T01:23:36.858Z,81.45
2019-02-28T01:28:40.284Z,81.86
2019-02-28T01:33:43.709Z,83.32
2019-02-28T01:38:47.146Z,83.69
2019-02-28T01:43:50.569Z,83.85
2019-02-28T01:48:54.522Z,82.62
2019-02-28T01:53:58.478Z,84.43
2019-02-28T01:59:01.924Z,83.22
2019-02-28T02:04:05.406Z,83.41
2019-02-28T02:09:11.083Z,82.98
2019-02-28T02:14:13.966Z,84.85
2019-02-28T02:19:18.491Z,85.27
2019-02-28T02:24:24.391Z,85.30
2019-02-28T02:29:27.990Z,84.39
2019-02-28T02:34:31.527Z,87.00
2019-02-28T02:39:34.964Z,86.58
2019-02-28T02:44:38.393Z,86.70
2019-02-28T02:49:41.851Z,87.24
2019-02-28T02:54:45.282Z,87.07
2019-02-28T02:59:48.694Z,87.23
2019-02-28T03:04:57.966Z,87.28
2019-02-28T03:09:57.277Z,86.92
2019-02-28T03:15:00.706Z,87.54
2019-02-28T03:20:07.543Z,89.02
2019-02-28T03:25:13.587Z,88.79
2019-02-28T03:30:27.695Z,87.99
2019-02-28T03:35:24.567Z,88.87
2019-02-28T03:40:27.989Z,89.88
2019-02-28T03:45:35.178Z,89.70
2019-02-28T03:50:36.616Z,89.14
2019-02-28T03:55:41.532Z,90.13
2019-02-28T04:00:45.199Z,90.41
2019-02-28T04:05:48.616Z,90.44
2019-02-28T04:10:54.793Z,92.90
2019-02-28T04:16:08.518Z,94.25
2019-02-28T04:21:02.359Z,93.33
2019-02-28T04:26:05.807Z,94.09
2019-02-28T04:31:09.236Z,95.45
2019-02-28T04:36:12.657Z,95.30
2019-02-28T04:41:16.087Z,91.83
2019-02-28T04:46:19.545Z,92.88
2019-02-28T04:51:22.963Z,92.92
2019-02-28T04:56:26.418Z,94.01
2019-02-28T05:01:29.842Z,93.47
2019-02-28T05:06:33.274Z,92.56
2019-02-28T05:11:36.709Z,93.29
2019-02-28T05:16:40.135Z,92.75
2019-02-28T05:21:43.550Z,93.75
2019-02-28T05:26:46.974Z,95.49
2019-02-28T05:31:50.394Z,95.10
2019-02-28T05:36:53.836Z,97.10
2019-02-28T05:41:57.322Z,97.50
2019-02-28T05:47:00.717Z,100.00
2019-02-28T05:52:04.134Z,100.00
2019-02-28T05:57:08.227Z,100.00
2019-02-28T06:02:12.450Z,100.00
2019-02-28T06:07:15.968Z,100.00
2019-02-28T06:12:19.402Z,100.00
2019-02-28T06:17:23.593Z,100.00
2019-02-28T06:22:27.012Z,100.00
2019-02-28T06:27:30.431Z,100.00
2019-02-28T06:32:33.887Z,100.00
2019-02-28T06:37:38.280Z,100.00
2019-02-28T06:42:43.565Z,100.00
2019-02-28T06:47:49.519Z,100.00
2019-02-28T06:52:52.922Z,100.00
2019-02-28T06:57:58.965Z,100.00
2019-02-28T07:03:03.340Z,100.00
2019-02-28T07:08:06.670Z,100.00
2019-02-28T07:13:11.858Z,100.00
2019-02-28T07:18:18.869Z,100.00
2019-02-28T07:23:22.205Z,100.00
2019-02-28T07:28:25.740Z,99.22
2019-02-28T07:33:29.174Z,97.67
2019-02-28T07:38:32.602Z,98.03
2019-02-28T07:43:36.031Z,96.34
2019-02-28T07:48:39.468Z,97.57
2019-02-28T07:53:42.885Z,99.26
2019-02-28T07:58:46.316Z,100.00
2019-02-28T08:03:49.758Z,100.00
2019-02-28T08:08:53.282Z,100.00
2019-02-28T08:13:56.726Z,100.00
2019-02-28T08:19:00.151Z,100.00
2019-02-28T08:24:05.532Z,100.00
2019-02-28T08:29:11.603Z,100.00
2019-02-28T08:34:14.037Z,100.00
2019-02-28T08:39:17.867Z,98.97
2019-02-28T08:44:23.836Z,97.85
2019-02-28T08:49:26.417Z,95.02
2019-02-28T08:54:29.833Z,92.99
2019-02-28T08:59:33.275Z,91.51
2019-02-28T09:04:41.217Z,88.55
2019-02-28T09:09:41.888Z,87.99
2019-02-28T09:14:45.323Z,88.00
2019-02-28T09:19:48.762Z,85.73
2019-02-28T09:24:52.222Z,86.22
2019-02-28T09:29:55.675Z,81.08
2019-02-28T09:34:59.083Z,80.12
2019-02-28T09:40:02.520Z,78.49
2019-02-28T09:45:09.086Z,77.18
2019-02-28T09:50:15.312Z,76.50
2019-02-28T09:55:18.821Z,75.51
2019-02-28T10:00:23.607Z,73.16
2019-02-28T10:05:27.077Z,71.67
2019-02-28T10:10:32.281Z,69.88
2019-02-28T10:15:38.753Z,69.78
2019-02-28T10:20:41.584Z,67.31
2019-02-28T10:25:45.795Z,67.08
2019-02-28T10:30:50.116Z,68.14
2019-02-28T10:35:54.403Z,67.87
2019-02-28T10:40:57.845Z,67.85
2019-02-28T10:46:01.269Z,67.84
2019-02-28T10:51:12.906Z,66.62
2019-02-28T10:56:10.495Z,65.10
2019-02-28T11:01:14.212Z,62.84
2019-02-28T11:06:17.656Z,62.57
2019-02-28T11:11:21.244Z,60.84
2019-02-28T11:16:24.715Z,60.36
2019-02-28T11:21:29.884Z,62.37
2019-02-28T11:26:34.023Z,62.40
2019-02-28T11:31:37.464Z,61.35
2019-02-28T11:36:40.919Z,60.41
2019-02-28T11:41:44.391Z,59.65
2019-02-28T11:46:47.977Z,59.43
2019-02-28T11:51:53.045Z,59.15
2019-02-28T11:56:56.573Z,59.69
2019-02-28T12:02:00.073Z,59.82
2019-02-28T12:07:03.488Z,60.95
2019-02-28T12:12:07.327Z,59.55
2019-02-28T12:17:12.251Z,58.85
2019-02-28T12:22:15.675Z,57.17
2019-02-28T12:27:19.191Z,55.86
2019-02-28T12:32:22.715Z,56.09
2019-02-28T12:37:26.191Z,57.91
2019-02-28T12:42:31.615Z,56.80
2019-02-28T12:47:34.876Z,57.31
2019-02-28T12:52:38.330Z,59.01
2019-02-28T12:57:41.859Z,60.80
2019-02-28T13:02:47.117Z,61.10
2019-02-28T13:07:50.852Z,60.51
2019-02-28T13:13:05.232Z,61.07
2019-02-28T13:17:59.474Z,61.20
2019-02-28T13:23:02.937Z,60.65
2019-02-28T13:28:07.955Z,60.11
2019-02-28T13:33:14.965Z,59.09
2019-02-28T13:38:19.141Z,57.62
2019-02-28T13:43:22.846Z,57.42
2019-02-28T13:48:32.997Z,56.16
2019-02-28T13:53:31.949Z,56.31
2019-02-28T13:58:35.493Z,55.61
2019-02-28T14:03:42.265Z,55.22
2019-02-28T14:08:46.236Z,54.00
2019-02-28T14:13:49.432Z,54.24
2019-02-28T14:18:54.639Z,53.41
2019-02-28T14:23:59.124Z,53.71
2019-02-28T14:29:02.837Z,54.49
2019-02-28T14:34:06.479Z,54.85
2019-02-28T14:39:11.589Z,55.24
2019-02-28T14:44:15.182Z,56.89
2019-02-28T14:49:20.346Z,56.58
2019-02-28T14:54:24.700Z,57.02
2019-02-28T14:59:31.236Z,57.96
2019-02-28T15:04:34.088Z,58.31
2019-02-28T15:09:37.541Z,59.84
2019-02-28T15:14:43.225Z,59.90
2019-02-28T15:19:46.283Z,59.87
2019-02-28T15:24:49.982Z,61.20
2019-02-28T15:29:55.499Z,62.06
2019-02-28T15:34:58.782Z,62.32
2019-02-28T15:40:02.283Z,62.27
2019-02-28T15:45:07.859Z,63.02
2019-02-28T15:50:16.324Z,62.20
2019-02-28T15:55:19.893Z,62.89
2019-02-28T16:00:25.955Z,62.14
2019-02-28T16:05:29.511Z,62.65
2019-02-28T16:10:35.055Z,63.93
2019-02-28T16:15:38.536Z,64.33
2019-02-28T16:20:41.986Z,65.15
2019-02-28T16:25:46.802Z,65.52
2019-02-28T16:30:50.777Z,65.68
2019-02-28T16:35:54.230Z,66.53
2019-02-28T16:41:00.730Z,68.71
2019-02-28T16:46:02.837Z,72.69
2019-02-28T16:51:06.271Z,74.71
2019-02-28T16:56:09.849Z,75.13
2019-02-28T17:01:13.350Z,76.62
2019-02-28T17:06:16.980Z,77.07
2019-02-28T17:11:20.429Z,77.08
2019-02-28T17:16:25.674Z,78.17
2019-02-28T17:21:29.154Z,78.44
2019-02-28T17:26:42.847Z,78.22
2019-02-28T17:31:49.326Z,78.29
2019-02-28T17:36:52.884Z,79.21
2019-02-28T17:41:56.307Z,79.09
2019-02-28T17:47:29.468Z,79.80
2019-02-28T17:52:41.627Z,79.68
2019-02-28T17:57:48.729Z,80.28
2019-02-28T18:03:17.723Z,81.72
2019-02-28T18:08:37.482Z,82.10
2019-02-28T18:13:55.267Z,81.80
2019-02-28T18:19:21.472Z,82.00
2019-02-28T18:24:34.716Z,83.66
2019-02-28T18:29:58.205Z,83.12
2019-02-28T18:35:01.630Z,83.35
2019-02-28T18:40:07.390Z,83.20
2019-02-28T18:45:12.183Z,83.09
2019-02-28T18:50:15.664Z,83.50
2019-02-28T18:55:19.068Z,83.36
2019-02-28T19:00:23.127Z,83.32
2019-02-28T19:05:27.490Z,83.30
2019-02-28T19:10:30.994Z,84.46
2019-02-28T19:15:34.507Z,84.06
2019-02-28T19:20:37.915Z,83.56
2019-02-28T19:25:41.464Z,83.66
2019-02-28T19:30:44.998Z,84.95
2019-02-28T19:35:48.468Z,85.28
2019-02-28T19:40:51.909Z,84.59
2019-02-28T19:45:56.292Z,84.81
2019-02-28T19:50:59.775Z,84.98
2019-02-28T19:56:03.205Z,84.75
2019-02-28T20:01:06.748Z,84.84
2019-02-28T20:06:10.201Z,85.29
2019-02-28T20:11:13.656Z,86.29
2019-02-28T20:16:17.275Z,85.50
2019-02-28T20:21:20.684Z,85.96
2019-02-28T20:26:24.177Z,85.78
2019-02-28T20:31:27.840Z,85.72
2019-02-28T20:36:31.359Z,85.58
2019-02-28T20:41:34.749Z,84.91
2019-02-28T20:46:38.283Z,85.17
2019-02-28T20:51:41.698Z,85.61
2019-02-28T20:56:45.139Z,85.60
2019-02-28T21:01:48.545Z,85.29
2019-02-28T21:06:51.965Z,85.45
2019-02-28T21:11:55.406Z,85.68
2019-02-28T21:16:59.059Z,85.53
2019-02-28T21:22:02.477Z,86.28
2019-02-28T21:27:06.254Z,86.38
2019-02-28T21:32:09.682Z,85.98
2019-02-28T21:37:13.145Z,87.11
2019-02-28T21:42:16.642Z,87.07
2019-02-28T21:47:20.048Z,89.22
2019-02-28T21:52:23.497Z,90.28
2019-02-28T21:57:26.919Z,92.51
2019-02-28T22:02:30.337Z,92.21
2019-02-28T22:07:33.802Z,91.94
2019-02-28T22:12:37.258Z,92.10
2019-02-28T22:17:40.703Z,91.81
2019-02-28T22:22:44.198Z,91.97
2019-02-28T22:27:47.628Z,92.04
2019-02-28T22:32:52.710Z,92.54
2019-02-28T22:37:56.148Z,92.49
2019-02-28T22:42:59.590Z,93.98
2019-02-28T22:48:03.084Z,94.69
2019-02-28T22:53:06.588Z,96.58
2019-02-28T22:58:13.216Z,99.58
2019-02-28T23:03:16.615Z,100.00
2019-02-28T23:08:20.116Z,100.00
2019-02-28T23:13:23.580Z,100.00
2019-02-28T23:18:27.020Z,100.00
2019-02-28T23:23:30.440Z,100.00
2019-02-28T23:28:36.824Z,100.00
2019-02-28T23:33:40.264Z,100.00
2019-02-28T23:38:43.714Z,100.00
2019-02-28T23:43:47.157Z,100.00
2019-02-28T23:48:50.613Z,100.00
2019-02-28T23:53:54.041Z,100.00
2019-02-28T23:58:57.472Z,100.00
